createdAt,value
2019-02-11T00:01:40.129Z,-21220.17
2019-02-11T00:04:08.401Z,-21211.80
2019-02-11T00:06:36.682Z,-21208.12
2019-02-11T00:09:07.565Z,-21223.57
2019-02-11T00:11:35.868Z,-21216.76
2019-02-11T00:14:04.136Z,-21219.89
2019-02-11T00:16:32.443Z,-21211.80
2019-02-11T00:19:00.707Z,-21183.00
2019-02-11T00:21:28.979Z,-21187.12
2019-02-11T00:23:57.248Z,-21196.49
2019-02-11T00:26:25.524Z,-21193.79
2019-02-11T00:28:53.813Z,-21227.12
2019-02-11T00:31:22.139Z,-21204.29
2019-02-11T00:33:50.444Z,-21210.25
2019-02-11T00:36:18.775Z,-21207.69
2019-02-11T00:38:47.044Z,-21213.79
2019-02-11T00:41:15.311Z,-21187.40
2019-02-11T00:43:43.562Z,-21189.25
2019-02-11T00:46:11.859Z,-21185.13
2019-02-11T00:48:40.144Z,-21190.25
2019-02-11T00:51:08.452Z,-21237.17
2019-02-11T00:53:36.712Z,-21206.27
2019-02-11T00:56:04.967Z,-21204.15
2019-02-11T00:58:33.240Z,-21210.67
2019-02-11T01:01:01.565Z,-21205.85
2019-02-11T01:03:29.850Z,-21190.52
2019-02-11T01:05:58.171Z,-21187.97
2019-02-11T01:08:26.435Z,-21186.13
2019-02-11T01:10:54.712Z,-21190.95
2019-02-11T01:13:27.856Z,-21200.88
2019-02-11T01:15:52.991Z,-21190.66
2019-02-11T01:18:21.267Z,-21203.86
2019-02-11T01:20:49.583Z,-21186.98
2019-02-11T01:23:17.844Z,-21192.23
2019-02-11T01:25:46.106Z,-21186.55
2019-02-11T01:28:14.376Z,-21184.85
2019-02-11T01:30:42.639Z,-21187.54
2019-02-11T01:33:10.920Z,-21195.63
2019-02-11T01:35:39.175Z,-21190.10
2019-02-11T01:38:07.450Z,-21204.15
2019-02-11T01:40:35.742Z,-21198.19
2019-02-11T01:43:04.071Z,-21190.39
2019-02-11T01:45:32.341Z,-21200.74
2019-02-11T01:48:00.600Z,-21197.05
2019-02-11T01:50:28.951Z,-21191.38
2019-02-11T01:52:57.219Z,-21178.46
2019-02-11T01:55:25.494Z,-21176.61
2019-02-11T01:57:53.789Z,-21184.99
2019-02-11T02:00:22.080Z,-21198.61
2019-02-11T02:02:50.341Z,-21186.55
2019-02-11T02:05:18.601Z,-21205.85
2019-02-11T02:07:46.870Z,-21188.68
2019-02-11T02:10:15.415Z,-21180.02
2019-02-11T02:12:43.770Z,-21194.50
2019-02-11T02:15:14.496Z,-21186.41
2019-02-11T02:17:42.752Z,-21189.25
2019-02-11T02:20:13.675Z,-21186.84
2019-02-11T02:22:41.985Z,-21190.10
2019-02-11T02:25:11.851Z,-21204.15
2019-02-11T02:27:40.104Z,-21175.33
2019-02-11T02:30:11.428Z,-21180.30
2019-02-11T02:32:39.675Z,-21179.02
2019-02-11T02:35:07.967Z,-21182.43
2019-02-11T02:37:36.254Z,-21168.51
2019-02-11T02:40:07.160Z,-21170.07
2019-02-11T02:42:35.428Z,-21181.44
2019-02-11T02:45:04.468Z,-21178.31
2019-02-11T02:47:32.758Z,-21168.94
2019-02-11T02:50:01.033Z,-21177.74
2019-02-11T02:52:29.286Z,-21185.41
2019-02-11T02:54:57.548Z,-21178.60
2019-02-11T02:57:25.869Z,-21179.59
2019-02-11T02:59:54.128Z,-21197.20
2019-02-11T03:02:22.411Z,-21183.86
2019-02-11T03:04:50.676Z,-21191.80
2019-02-11T03:07:18.941Z,-21179.16
2019-02-11T03:09:47.206Z,-21185.41
2019-02-11T03:12:15.505Z,-21192.23
2019-02-11T03:14:43.767Z,-21197.34
2019-02-11T03:17:12.042Z,-21186.98
2019-02-11T03:19:40.304Z,-21194.21
2019-02-11T03:22:08.654Z,-21188.26
2019-02-11T03:24:36.931Z,-21191.24
2019-02-11T03:27:05.194Z,-21199.32
2019-02-11T03:29:33.457Z,-21197.48
2019-02-11T03:32:01.744Z,-21192.65
2019-02-11T03:34:30.008Z,-21189.67
2019-02-11T03:36:58.292Z,-21190.39
2019-02-11T03:39:26.556Z,-21191.09
2019-02-11T03:41:54.827Z,-21181.44
2019-02-11T03:44:23.082Z,-21172.92
2019-02-11T03:46:51.364Z,-21192.23
2019-02-11T03:49:19.645Z,-21187.69
2019-02-11T03:51:47.919Z,-21185.98
2019-02-11T03:54:16.196Z,-21174.62
2019-02-11T03:56:44.532Z,-21182.01
2019-02-11T03:59:12.888Z,-21179.73
2019-02-11T04:01:41.152Z,-21190.10
2019-02-11T04:04:09.535Z,-21192.65
2019-02-11T04:06:37.792Z,-21202.87
2019-02-11T04:09:06.637Z,-21185.27
2019-02-11T04:11:37.573Z,-21187.69
2019-02-11T04:14:05.841Z,-21188.40
2019-02-11T04:16:34.104Z,-21193.08
2019-02-11T04:19:02.481Z,-21177.74
2019-02-11T04:21:30.814Z,-21180.59
2019-02-11T04:23:59.054Z,-21187.83
2019-02-11T04:26:27.387Z,-21181.73
2019-02-11T04:28:55.659Z,-21181.44
2019-02-11T04:31:23.918Z,-21166.95
2019-02-11T04:33:52.206Z,-21188.26
2019-02-11T04:36:20.553Z,-21170.36
2019-02-11T04:38:48.800Z,-21178.46
2019-02-11T04:41:20.057Z,-21174.91
2019-02-11T04:43:48.310Z,-21186.41
2019-02-11T04:46:16.579Z,-21209.54
2019-02-11T04:48:44.834Z,-21173.34
2019-02-11T04:51:13.103Z,-21195.07
2019-02-11T04:53:41.362Z,-21183.29
2019-02-11T04:56:09.626Z,-21187.40
2019-02-11T04:58:37.889Z,-21192.09
2019-02-11T05:01:06.146Z,-21183.14
2019-02-11T05:03:34.408Z,-21184.42
2019-02-11T05:06:02.673Z,-21191.38
2019-02-11T05:08:30.932Z,-21193.65
2019-02-11T05:10:59.206Z,-21185.84
2019-02-11T05:13:27.533Z,-21199.89
2019-02-11T05:15:55.795Z,-21194.21
2019-02-11T05:18:24.057Z,-21200.74
2019-02-11T05:20:52.329Z,-21199.32
2019-02-11T05:23:20.592Z,-21188.11
2019-02-11T05:25:48.888Z,-21206.41
2019-02-11T05:28:17.143Z,-21207.27
2019-02-11T05:30:45.408Z,-21188.26
2019-02-11T05:33:13.717Z,-21186.55
2019-02-11T05:35:41.963Z,-21209.25
2019-02-11T05:38:10.247Z,-21193.37
2019-02-11T05:40:38.508Z,-21203.15
2019-02-11T05:43:06.844Z,-21186.55
2019-02-11T05:45:35.100Z,-21182.15
2019-02-11T05:48:03.418Z,-21184.99
2019-02-11T05:50:31.690Z,-21202.02
2019-02-11T05:52:59.934Z,-21206.41
2019-02-11T05:55:28.205Z,-21184.00
2019-02-11T05:57:56.475Z,-21183.14
2019-02-11T06:00:24.746Z,-21198.19
2019-02-11T06:02:52.991Z,-21202.02
2019-02-11T06:05:21.269Z,-21191.95
2019-02-11T06:07:49.537Z,-21192.80
2019-02-11T06:10:17.798Z,-21189.67
2019-02-11T06:12:46.052Z,-21187.83
2019-02-11T06:15:14.333Z,-21188.40
2019-02-11T06:17:42.592Z,-21193.08
2019-02-11T06:20:10.913Z,-21199.32
2019-02-11T06:22:39.189Z,-21202.73
2019-02-11T06:25:08.310Z,-21199.89
2019-02-11T06:27:36.539Z,-21201.59
2019-02-11T06:30:29.692Z,-21201.17
2019-02-11T06:32:57.948Z,-21212.51
2019-02-11T06:35:26.215Z,-21226.55
2019-02-11T06:37:54.514Z,-21224.57
2019-02-11T06:40:22.761Z,-21235.48
2019-02-11T06:42:50.999Z,-21241.43
2019-02-11T06:45:19.255Z,-21212.37
2019-02-11T06:47:47.530Z,-21229.67
2019-02-11T06:50:16.415Z,-21214.36
2019-02-11T06:52:44.690Z,-21227.96
2019-02-11T06:55:13.019Z,-21230.23
2019-02-11T06:57:41.278Z,-21206.13
2019-02-11T07:00:12.497Z,-21214.64
2019-02-11T07:02:40.770Z,-21241.99
2019-02-11T07:05:09.092Z,-21228.96
2019-02-11T07:07:37.371Z,-21218.61
2019-02-11T07:10:13.046Z,-21213.22
2019-02-11T07:12:41.346Z,-21221.73
2019-02-11T07:15:21.547Z,-21238.87
2019-02-11T07:17:43.842Z,-21223.29
2019-02-11T07:20:12.158Z,-21225.70
2019-02-11T07:22:40.425Z,-21225.98
2019-02-11T07:25:09.477Z,-21215.63
2019-02-11T07:27:37.789Z,-21208.69
2019-02-11T07:30:13.744Z,-21213.79
2019-02-11T07:32:41.993Z,-21215.92
2019-02-11T07:35:10.338Z,-21248.36
2019-02-11T07:37:38.598Z,-21229.67
2019-02-11T07:40:10.263Z,-21216.48
2019-02-11T07:42:42.714Z,-21218.04
2019-02-11T07:45:13.000Z,-21239.72
2019-02-11T07:47:41.272Z,-21205.00
2019-02-11T07:50:09.605Z,-21224.42
2019-02-11T07:52:37.893Z,-21226.69
2019-02-11T07:55:06.306Z,-21199.89
2019-02-11T07:57:34.590Z,-21211.52
2019-02-11T08:00:02.885Z,-21207.83
2019-02-11T08:02:33.540Z,-21223.15
2019-02-11T08:05:01.812Z,-21223.15
2019-02-11T08:07:32.444Z,-21216.34
2019-02-11T08:10:02.937Z,-21216.48
2019-02-11T08:12:31.264Z,-21226.55
2019-02-11T08:14:59.530Z,-21197.34
2019-02-11T08:17:27.791Z,-21193.22
2019-02-11T08:19:56.070Z,-21214.92
2019-02-11T08:22:24.328Z,-21219.18
2019-02-11T08:24:52.626Z,-21235.90
2019-02-11T08:27:20.899Z,-21216.76
2019-02-11T08:29:49.143Z,-21200.60
2019-02-11T08:32:17.485Z,-21203.72
2019-02-11T08:34:45.736Z,-21209.96
2019-02-11T08:37:14.017Z,-21219.60
2019-02-11T08:39:42.263Z,-21201.59
2019-02-11T08:42:10.555Z,-21212.09
2019-02-11T08:44:38.804Z,-21210.10
2019-02-11T08:47:07.161Z,-21205.57
2019-02-11T08:49:35.436Z,-21211.52
2019-02-11T08:52:03.694Z,-21248.93
2019-02-11T08:54:31.968Z,-21239.87
2019-02-11T08:57:00.226Z,-21222.86
2019-02-11T08:59:28.528Z,-21242.98
2019-02-11T09:01:56.786Z,-21257.29
2019-02-11T09:04:25.061Z,-21255.45
2019-02-11T09:06:53.331Z,-21283.02
2019-02-11T09:09:21.596Z,-21251.20
2019-02-11T09:11:49.845Z,-21249.64
2019-02-11T09:14:18.177Z,-21257.71
2019-02-11T09:16:46.445Z,-21263.65
2019-02-11T09:19:14.690Z,-21237.32
2019-02-11T09:21:43.059Z,-21239.58
2019-02-11T09:24:11.324Z,-21243.69
2019-02-11T09:26:39.576Z,-21233.07
2019-02-11T09:29:07.845Z,-21237.89
2019-02-11T09:31:36.140Z,-21236.47
2019-02-11T09:34:04.464Z,-21223.15
2019-02-11T09:36:32.715Z,-21240.01
2019-02-11T09:39:01.002Z,-21215.49
2019-02-11T09:41:29.243Z,-21213.50
2019-02-11T09:43:57.577Z,-21213.50
2019-02-11T09:46:25.841Z,-21213.79
2019-02-11T09:48:54.190Z,-21245.53
2019-02-11T09:51:24.175Z,-21264.64
2019-02-11T09:53:52.470Z,-21251.76
2019-02-11T09:56:20.740Z,-21240.71
2019-02-11T09:58:49.041Z,-21244.96
2019-02-11T10:01:17.430Z,-21226.13
2019-02-11T10:03:45.686Z,-21230.94
2019-02-11T10:06:14.049Z,-21239.87
2019-02-11T10:08:42.324Z,-21228.82
2019-02-11T10:11:10.592Z,-21223.15
2019-02-11T10:13:38.927Z,-21233.21
2019-02-11T10:16:12.427Z,-21224.00
2019-02-11T10:18:37.224Z,-21251.76
2019-02-11T10:21:05.484Z,-21218.32
2019-02-11T10:23:33.781Z,-21266.76
2019-02-11T10:26:02.047Z,-21240.43
2019-02-11T10:28:30.800Z,-21230.52
2019-02-11T10:30:59.078Z,-21218.18
2019-02-11T10:33:27.356Z,-21229.52
2019-02-11T10:35:55.657Z,-21221.30
2019-02-11T10:38:23.913Z,-21245.39
2019-02-11T10:40:52.257Z,-21231.51
2019-02-11T10:43:20.524Z,-21231.65
2019-02-11T10:45:48.790Z,-21218.32
2019-02-11T10:48:17.051Z,-21233.92
2019-02-11T10:50:45.343Z,-21231.65
2019-02-11T10:53:13.602Z,-21219.89
2019-02-11T10:55:41.872Z,-21237.04
2019-02-11T10:58:10.131Z,-21246.24
2019-02-11T11:00:39.031Z,-21246.38
2019-02-11T11:03:07.326Z,-21269.87
2019-02-11T11:05:35.590Z,-21248.64
2019-02-11T11:08:03.911Z,-21266.06
2019-02-11T11:10:37.331Z,-21255.58
2019-02-11T11:13:05.631Z,-21264.21
2019-02-11T11:15:33.949Z,-21260.82
2019-02-11T11:18:02.201Z,-21261.39
2019-02-11T11:20:30.658Z,-21256.72
2019-02-11T11:22:58.929Z,-21203.29
2019-02-11T11:25:27.203Z,-21224.85
2019-02-11T11:27:55.481Z,-21241.99
2019-02-11T11:30:23.771Z,-21243.12
2019-02-11T11:32:52.074Z,-21242.13
2019-02-11T11:35:20.570Z,-21242.13
2019-02-11T11:37:48.833Z,-21257.43
2019-02-11T11:40:23.674Z,-21258.28
2019-02-11T11:42:52.003Z,-21272.84
2019-02-11T11:45:21.038Z,-21246.66
2019-02-11T11:47:49.272Z,-21254.87
2019-02-11T11:50:18.119Z,-21274.96
2019-02-11T11:52:46.370Z,-21249.35
2019-02-11T11:55:18.659Z,-21246.66
2019-02-11T11:57:46.897Z,-21274.96
2019-02-11T12:00:21.351Z,-21268.18
2019-02-11T12:03:01.817Z,-21232.22
2019-02-11T12:05:19.851Z,-21244.25
2019-02-11T12:07:48.187Z,-21250.34
2019-02-11T12:10:16.600Z,-21264.21
2019-02-11T12:12:44.969Z,-21287.69
2019-02-11T12:15:15.885Z,-21271.29
2019-02-11T12:17:45.601Z,-21272.56
2019-02-11T12:20:15.391Z,-21258.56
2019-02-11T12:22:45.526Z,-21261.11
2019-02-11T12:25:15.835Z,-21280.05
2019-02-11T12:27:44.090Z,-21273.70
2019-02-11T12:30:23.521Z,-21257.29
2019-02-11T12:32:55.027Z,-21257.00
2019-02-11T12:35:21.915Z,-21252.46
2019-02-11T12:37:50.713Z,-21239.16
2019-02-11T12:40:19.201Z,-21274.54
2019-02-11T12:42:47.561Z,-21262.52
2019-02-11T12:45:21.970Z,-21290.23
2019-02-11T12:47:50.323Z,-21274.82
2019-02-11T12:50:18.944Z,-21289.53
2019-02-11T12:52:47.377Z,-21278.93
2019-02-11T12:55:16.847Z,-21277.65
2019-02-11T12:57:45.117Z,-21289.25
2019-02-11T13:00:21.539Z,-21305.49
2019-02-11T13:02:49.946Z,-21331.05
2019-02-11T13:05:22.258Z,-21331.18
2019-02-11T13:07:48.649Z,-21305.35
2019-02-11T13:10:19.826Z,-21322.29
2019-02-11T13:12:48.096Z,-21349.09
2019-02-11T13:15:34.667Z,-21373.89
2019-02-11T13:17:47.587Z,-21421.14
2019-02-11T13:20:18.083Z,-21385.99
2019-02-11T13:22:46.507Z,-21399.36
2019-02-11T13:25:16.997Z,-21419.73
2019-02-11T13:27:45.337Z,-21411.45
2019-02-11T13:30:22.795Z,-21481.31
2019-02-11T13:32:51.043Z,-21454.41
2019-02-11T13:35:19.412Z,-21410.74
2019-02-11T13:37:47.655Z,-21446.13
2019-02-11T13:40:16.137Z,-21457.91
2019-02-11T13:42:44.642Z,-21381.63
2019-02-11T13:45:26.252Z,-21319.34
2019-02-11T13:48:01.837Z,-21289.25
2019-02-11T13:50:48.075Z,-21293.34
2019-02-11T13:53:24.742Z,-21284.30
2019-02-11T13:55:57.642Z,-21270.16
2019-02-11T13:58:41.238Z,-21283.02
2019-02-11T14:01:17.160Z,-21273.13
2019-02-11T14:03:54.917Z,-21279.49
2019-02-11T14:06:35.275Z,-21288.68
2019-02-11T14:09:13.890Z,-21270.45
2019-02-11T14:11:42.217Z,-21299.14
2019-02-11T14:14:21.299Z,-21289.67
2019-02-11T14:16:59.091Z,-21294.76
2019-02-11T14:19:41.934Z,-21308.88
2019-02-11T14:22:17.668Z,-21292.21
2019-02-11T14:24:52.880Z,-21278.93
2019-02-11T14:27:24.839Z,-21285.43
2019-02-11T14:30:06.709Z,-21274.96
2019-02-11T14:32:42.399Z,-21261.81
2019-02-11T14:35:27.405Z,-21261.11
2019-02-11T14:38:06.607Z,-21268.74
2019-02-11T14:40:43.863Z,-21280.05
2019-02-11T14:43:15.778Z,-21292.78
2019-02-11T14:45:50.976Z,-21298.86
2019-02-11T14:48:27.638Z,-21254.59
2019-02-11T14:50:57.247Z,-21263.80
2019-02-11T14:53:43.121Z,-21262.52
2019-02-11T14:56:33.977Z,-21274.26
2019-02-11T14:59:16.955Z,-21279.77
2019-02-11T15:01:49.347Z,-21253.46
2019-02-11T15:04:20.616Z,-21265.35
2019-02-11T15:07:11.100Z,-21260.54
2019-02-11T15:09:47.636Z,-21264.78
2019-02-11T15:12:27.292Z,-21247.66
2019-02-11T15:14:58.745Z,-21248.22
2019-02-11T15:17:37.142Z,-21253.18
2019-02-11T15:20:16.164Z,-21266.34
2019-02-11T15:22:51.875Z,-21265.21
2019-02-11T15:25:20.151Z,-21272.42
2019-02-11T15:27:53.065Z,-21262.66
2019-02-11T15:30:24.170Z,-21250.91
2019-02-11T15:33:01.841Z,-21260.11
2019-02-11T15:35:35.324Z,-21250.48
2019-02-11T15:38:13.785Z,-21263.80
2019-02-11T15:40:46.640Z,-21279.49
2019-02-11T15:43:30.824Z,-21283.31
2019-02-11T15:46:15.350Z,-21280.63
2019-02-11T15:48:53.888Z,-21290.38
2019-02-11T15:51:34.614Z,-21292.21
2019-02-11T15:54:08.253Z,-21262.52
2019-02-11T15:56:39.802Z,-21264.50
2019-02-11T15:59:17.868Z,-21271.29
2019-02-11T16:01:59.714Z,-21291.51
2019-02-11T16:04:34.314Z,-21265.63
2019-02-11T16:07:17.902Z,-21245.39
2019-02-11T16:09:53.352Z,-21252.75
2019-02-11T16:12:23.157Z,-21228.82
2019-02-11T16:14:54.733Z,-21251.05
2019-02-11T16:17:39.413Z,-21262.52
2019-02-11T16:20:14.608Z,-21275.11
2019-02-11T16:22:57.913Z,-21253.32
2019-02-11T16:25:26.259Z,-21245.53
2019-02-11T16:27:57.934Z,-21266.76
2019-02-11T16:30:35.295Z,-21253.60
2019-02-11T16:33:13.356Z,-21257.71
2019-02-11T16:35:58.129Z,-21258.56
2019-02-11T16:38:27.996Z,-21244.11
2019-02-11T16:41:06.745Z,-21240.29
2019-02-11T16:43:40.434Z,-21253.74
2019-02-11T16:46:19.125Z,-21259.12
2019-02-11T16:49:02.709Z,-21285.14
2019-02-11T16:51:40.341Z,-21259.55
2019-02-11T16:54:22.280Z,-21250.77
2019-02-11T16:56:59.181Z,-21260.26
2019-02-11T16:59:41.513Z,-21270.58
2019-02-11T17:02:09.008Z,-21287.12
2019-02-11T17:07:42.201Z,-21288.40
2019-02-11T17:10:24.382Z,-21289.39
2019-02-11T17:12:55.063Z,-21259.83
2019-02-11T17:15:50.736Z,-21242.27
2019-02-11T17:18:19.231Z,-21245.25
2019-02-11T17:24:46.625Z,-21236.89
2019-02-11T17:27:20.549Z,-21250.48
2019-02-11T17:29:53.592Z,-21252.04
2019-02-11T17:32:29.627Z,-21255.73
2019-02-11T17:35:06.473Z,-21262.52
2019-02-11T17:37:47.904Z,-21271.71
2019-02-11T17:40:21.211Z,-21237.60
2019-02-11T17:43:06.312Z,-21240.71
2019-02-11T17:45:43.747Z,-21241.99
2019-02-11T17:48:23.714Z,-21245.81
2019-02-11T17:50:55.174Z,-21277.23
2019-02-11T17:53:50.245Z,-21216.34
2019-02-11T17:56:29.850Z,-21221.73
2019-02-11T17:59:12.486Z,-21227.96
2019-02-11T18:01:59.335Z,-21224.99
2019-02-11T18:04:27.731Z,-21220.74
2019-02-11T18:07:01.365Z,-21223.15
2019-02-11T18:09:31.374Z,-21222.30
2019-02-11T18:12:07.971Z,-21238.59
2019-02-11T18:14:45.682Z,-21242.27
2019-02-11T18:17:22.192Z,-21283.59
2019-02-11T18:19:52.175Z,-21251.20
2019-02-11T18:22:21.994Z,-21247.52
2019-02-11T18:25:03.156Z,-21257.85
2019-02-11T18:27:39.663Z,-21274.26
2019-02-11T18:30:17.514Z,-21285.71
2019-02-11T18:32:50.185Z,-21284.30
2019-02-11T18:35:20.198Z,-21269.73
2019-02-11T18:37:53.542Z,-21254.87
2019-02-11T18:40:27.343Z,-21230.52
2019-02-11T18:42:59.486Z,-21216.05
2019-02-11T18:45:30.001Z,-21220.46
2019-02-11T18:48:03.036Z,-21233.78
2019-02-11T18:50:38.521Z,-21245.25
2019-02-11T18:53:21.315Z,-21206.70
2019-02-11T18:55:54.763Z,-21269.31
2019-02-11T18:58:30.503Z,-21258.70
2019-02-11T19:01:05.096Z,-21269.45
2019-02-11T19:03:41.971Z,-21293.34
2019-02-11T19:06:18.453Z,-21245.81
2019-02-11T19:08:53.984Z,-21246.52
2019-02-11T19:11:25.462Z,-21270.16
2019-02-11T19:14:00.408Z,-21244.54
2019-02-11T19:16:37.840Z,-21253.74
2019-02-11T19:19:20.453Z,-21229.81
2019-02-11T19:21:53.579Z,-21238.45
2019-02-11T19:27:59.153Z,-21214.64
2019-02-11T19:30:43.389Z,-21200.04
2019-02-11T19:33:08.841Z,-21221.73
2019-02-11T19:35:37.139Z,-21241.00
2019-02-11T19:41:11.762Z,-21232.93
2019-02-11T19:43:42.515Z,-21238.45
2019-02-11T19:46:18.142Z,-21249.07
2019-02-11T19:48:56.731Z,-21257.43
2019-02-11T19:51:28.892Z,-21262.95
2019-02-11T19:54:29.732Z,-21257.29
2019-02-11T19:57:16.936Z,-21247.52
2019-02-11T20:02:28.756Z,-21244.96
2019-02-11T20:05:01.271Z,-21246.24
2019-02-11T20:07:41.168Z,-21231.65
2019-02-11T20:10:25.875Z,-21225.70
2019-02-11T20:13:06.152Z,-21230.52
2019-02-11T20:15:33.055Z,-21218.32
2019-02-11T20:18:10.712Z,-21241.28
2019-02-11T20:20:46.949Z,-21231.65
2019-02-11T20:26:18.207Z,-21271.01
2019-02-11T20:28:48.116Z,-21242.70
2019-02-11T20:31:19.287Z,-21232.50
2019-02-11T20:34:07.950Z,-21238.73
2019-02-11T20:36:42.605Z,-21240.01
2019-02-11T20:39:13.849Z,-21242.13
2019-02-11T20:41:55.704Z,-21247.09
2019-02-11T20:44:23.708Z,-21257.85
2019-02-11T20:47:07.185Z,-21264.50
2019-02-11T20:49:41.898Z,-21235.90
2019-02-11T20:52:23.137Z,-21243.98
2019-02-11T20:54:59.571Z,-21256.16
2019-02-11T20:57:30.226Z,-21237.17
2019-02-11T21:00:05.059Z,-21257.43
2019-02-11T21:02:42.720Z,-21227.54
2019-02-11T21:05:18.478Z,-21265.77
2019-02-11T21:07:53.752Z,-21269.87
2019-02-11T21:10:25.262Z,-21285.85
2019-02-11T21:12:59.251Z,-21260.11
2019-02-11T21:15:37.927Z,-21272.70
2019-02-11T21:18:14.738Z,-21271.57
2019-02-11T21:20:51.228Z,-21246.38
2019-02-11T21:23:40.097Z,-21269.45
2019-02-11T21:26:03.602Z,-21265.63
2019-02-11T21:28:54.052Z,-21255.87
2019-02-11T21:31:40.167Z,-21279.63
2019-02-11T21:34:22.730Z,-21271.57
2019-02-11T21:37:00.214Z,-21239.58
2019-02-11T21:39:30.523Z,-21232.36
2019-02-11T21:42:09.569Z,-21245.11
2019-02-11T21:45:10.176Z,-21277.79
2019-02-11T21:47:15.852Z,-21252.89
2019-02-11T21:50:11.144Z,-21263.51
2019-02-11T21:52:47.650Z,-21287.98
2019-02-11T21:55:32.446Z,-21273.55
2019-02-11T21:58:03.915Z,-21233.92
2019-02-11T22:00:35.883Z,-21242.13
2019-02-11T22:03:05.843Z,-21221.02
2019-02-11T22:05:41.483Z,-21221.02
2019-02-11T22:08:25.306Z,-21237.60
2019-02-11T22:12:41.984Z,-21245.96
2019-02-11T22:13:52.369Z,-21247.52
2019-02-11T22:16:34.652Z,-21221.59
2019-02-11T22:19:15.692Z,-21239.16
2019-02-11T22:22:05.400Z,-21213.64
2019-02-11T22:24:39.726Z,-21194.78
2019-02-11T22:27:17.729Z,-21215.06
2019-02-11T22:29:53.307Z,-21207.69
2019-02-11T22:32:39.747Z,-21208.40
2019-02-11T22:35:11.606Z,-21201.73
2019-02-11T22:40:38.455Z,-21194.78
2019-02-11T22:43:11.574Z,-21205.71
2019-02-11T22:45:41.467Z,-21192.65
2019-02-11T22:48:16.038Z,-21216.48
2019-02-11T22:50:54.650Z,-21232.64
2019-02-11T22:53:27.637Z,-21215.92
2019-02-11T22:56:00.322Z,-21205.57
2019-02-11T22:58:38.996Z,-21174.19
2019-02-11T23:01:18.288Z,-21202.44
2019-02-11T23:03:53.792Z,-21202.44
2019-02-11T23:06:23.626Z,-21196.20
2019-02-11T23:09:17.357Z,-21200.32
2019-02-11T23:11:50.859Z,-21173.48
2019-02-11T23:14:29.052Z,-21186.55
2019-02-11T23:17:00.652Z,-21192.94
2019-02-11T23:19:30.517Z,-21168.80
2019-02-11T23:21:59.176Z,-21162.97
2019-02-11T23:24:27.647Z,-21177.88
2019-02-11T23:26:55.930Z,-21182.29
2019-02-11T23:29:24.292Z,-21180.02
2019-02-11T23:31:52.639Z,-21177.46
2019-02-11T23:34:20.897Z,-21176.32
2019-02-11T23:36:49.204Z,-21177.46
2019-02-11T23:39:17.655Z,-21169.79
2019-02-11T23:41:45.957Z,-21179.30
2019-02-11T23:44:15.015Z,-21191.09
2019-02-11T23:46:43.300Z,-21202.44
2019-02-11T23:49:13.202Z,-21186.55
2019-02-11T23:51:41.502Z,-21189.67
2019-02-11T23:54:09.807Z,-21187.83
2019-02-11T23:56:38.282Z,-21193.93
2019-02-11T23:59:06.601Z,-21181.44
